createdAt,value
2016-07-03T00:00:16.728Z,0
2016-07-03T00:01:16.670Z,0
2016-07-03T00:02:16.698Z,0
2016-07-03T00:03:16.653Z,0
2016-07-03T00:04:16.744Z,0
2016-07-03T00:05:16.681Z,0
2016-07-03T00:06:16.674Z,0
2016-07-03T00:07:16.780Z,0
2016-07-03T00:08:16.677Z,0
2016-07-03T00:09:16.734Z,0
2016-07-03T00:10:16.729Z,0
2016-07-03T00:11:16.724Z,0
2016-07-03T00:12:16.732Z,0
2016-07-03T00:13:16.742Z,0
2016-07-03T00:14:16.698Z,0
2016-07-03T00:15:16.783Z,0
2016-07-03T00:16:16.690Z,0
2016-07-03T00:17:16.661Z,0
2016-07-03T00:18:16.678Z,0
2016-07-03T00:19:16.746Z,0
2016-07-03T00:20:16.711Z,0
2016-07-03T00:21:16.801Z,0
2016-07-03T00:22:16.685Z,0
2016-07-03T00:23:16.698Z,0
2016-07-03T00:24:20.799Z,0
2016-07-03T00:25:16.719Z,0
2016-07-03T00:26:16.714Z,0
2016-07-03T00:27:16.678Z,0
2016-07-03T00:28:16.640Z,0
2016-07-03T00:29:16.615Z,0
2016-07-03T00:30:16.633Z,0
2016-07-03T00:31:16.662Z,0
2016-07-03T00:32:16.663Z,0
2016-07-03T00:33:16.690Z,0
2016-07-03T00:34:16.677Z,0
2016-07-03T00:35:16.687Z,0
2016-07-03T00:36:16.677Z,0
2016-07-03T00:37:16.722Z,0
2016-07-03T00:38:16.729Z,0
2016-07-03T00:39:16.670Z,0
2016-07-03T00:40:16.705Z,0
2016-07-03T00:41:16.637Z,0
2016-07-03T00:42:16.662Z,0
2016-07-03T00:43:16.670Z,0
2016-07-03T00:44:16.684Z,0
2016-07-03T00:45:16.758Z,0
2016-07-03T00:46:16.821Z,0
2016-07-03T00:47:16.728Z,0
2016-07-03T00:48:16.665Z,0
2016-07-03T00:49:16.702Z,0
2016-07-03T00:50:16.653Z,0
2016-07-03T00:51:16.735Z,0
2016-07-03T00:52:16.703Z,0
2016-07-03T00:53:16.828Z,0
2016-07-03T00:54:16.658Z,0
2016-07-03T00:55:16.680Z,0
2016-07-03T00:56:16.729Z,0
2016-07-03T00:57:16.689Z,0
2016-07-03T00:58:16.702Z,0
2016-07-03T00:59:16.703Z,0
2016-07-03T01:00:16.699Z,0
2016-07-03T01:01:16.678Z,0
2016-07-03T01:02:16.672Z,0
2016-07-03T01:03:16.712Z,0
2016-07-03T01:04:16.695Z,0
2016-07-03T01:05:16.707Z,0
2016-07-03T01:06:16.699Z,0
2016-07-03T01:07:17.128Z,0
2016-07-03T01:08:16.795Z,0
2016-07-03T01:09:16.965Z,0
2016-07-03T01:10:17.159Z,0
2016-07-03T01:11:16.700Z,0
2016-07-03T01:12:16.751Z,0
2016-07-03T01:13:16.862Z,0
2016-07-03T01:14:16.693Z,0
2016-07-03T01:15:17.142Z,0
2016-07-03T01:16:16.724Z,0
2016-07-03T01:17:16.778Z,0
2016-07-03T01:18:16.720Z,0
2016-07-03T01:19:16.846Z,0
2016-07-03T01:20:17.078Z,0
2016-07-03T01:32:36.421Z,0
2016-07-03T01:33:34.509Z,0
2016-07-03T01:34:34.418Z,0
2016-07-03T01:35:34.464Z,0
2016-07-03T01:36:34.964Z,0
2016-07-03T01:37:34.648Z,0
2016-07-03T01:38:34.498Z,0
2016-07-03T01:39:34.497Z,0
2016-07-03T01:40:34.450Z,0
2016-07-03T01:41:34.557Z,0
2016-07-03T01:42:34.552Z,0
2016-07-03T01:43:34.457Z,0
2016-07-03T01:44:34.616Z,0
2016-07-03T01:45:34.500Z,0
2016-07-03T01:46:34.491Z,0
2016-07-03T01:47:34.545Z,0
2016-07-03T01:48:34.507Z,0
2016-07-03T01:49:34.894Z,0
2016-07-03T01:50:34.419Z,0
2016-07-03T01:51:34.421Z,0
2016-07-03T01:52:34.435Z,0
2016-07-03T01:53:34.483Z,0
2016-07-03T01:54:34.442Z,0
2016-07-03T01:55:34.417Z,0
2016-07-03T01:56:34.630Z,0
2016-07-03T01:57:34.401Z,0
2016-07-03T01:58:34.441Z,0
2016-07-03T01:59:34.411Z,0
2016-07-03T02:00:34.429Z,0
2016-07-03T02:01:34.467Z,0
2016-07-03T02:02:34.436Z,0
2016-07-03T02:03:34.387Z,0
2016-07-03T02:04:34.449Z,0
2016-07-03T02:05:34.477Z,0
2016-07-03T02:06:34.436Z,0
2016-07-03T02:07:34.423Z,0
2016-07-03T02:08:34.395Z,0
2016-07-03T02:09:34.477Z,0
2016-07-03T02:10:34.473Z,0
2016-07-03T02:11:34.682Z,0
2016-07-03T02:12:34.572Z,0
2016-07-03T02:13:34.450Z,0
2016-07-03T02:14:34.760Z,0
2016-07-03T02:15:34.573Z,0
2016-07-03T02:16:34.462Z,0
2016-07-03T02:17:34.488Z,0
2016-07-03T02:18:34.477Z,0
2016-07-03T02:19:34.432Z,0
2016-07-03T02:20:35.552Z,0
2016-07-03T02:21:34.487Z,0
2016-07-03T02:22:34.765Z,0
2016-07-03T02:23:34.461Z,0
2016-07-03T02:24:34.414Z,0
2016-07-03T02:25:34.437Z,0
2016-07-03T02:26:34.796Z,0
2016-07-03T02:27:34.462Z,0
2016-07-03T02:28:34.464Z,0
2016-07-03T02:29:34.442Z,4
2016-07-03T02:30:34.435Z,4
2016-07-03T02:31:34.427Z,4
2016-07-03T02:32:34.420Z,0
2016-07-03T02:33:34.573Z,0
2016-07-03T02:34:34.654Z,4
2016-07-03T02:35:34.499Z,4
2016-07-03T02:36:34.456Z,4
2016-07-03T02:37:34.594Z,4
2016-07-03T02:38:34.439Z,4
2016-07-03T02:39:34.441Z,4
2016-07-03T02:40:34.460Z,4
2016-07-03T02:41:34.415Z,4
2016-07-03T02:42:34.449Z,8
2016-07-03T02:43:34.437Z,8
2016-07-03T02:44:34.662Z,12
2016-07-03T02:45:34.559Z,12
2016-07-03T02:46:34.419Z,12
2016-07-03T02:47:34.687Z,12
2016-07-03T02:48:34.461Z,16
2016-07-03T02:49:34.409Z,16
2016-07-03T02:50:34.429Z,16
2016-07-03T02:51:39.482Z,24
2016-07-03T02:52:34.492Z,24
2016-07-03T02:53:34.480Z,28
2016-07-03T02:54:34.691Z,32
2016-07-03T02:55:34.452Z,32
2016-07-03T02:56:34.423Z,36
2016-07-03T02:57:34.436Z,40
2016-07-03T02:58:34.428Z,44
2016-07-03T02:59:34.521Z,48
2016-07-03T03:00:34.442Z,56
2016-07-03T03:01:34.459Z,60
2016-07-03T03:02:34.445Z,68
2016-07-03T03:03:34.415Z,68
2016-07-03T03:04:34.609Z,76
2016-07-03T03:05:34.451Z,84
2016-07-03T03:06:34.504Z,92
2016-07-03T03:07:34.469Z,104
2016-07-03T03:08:34.477Z,108
2016-07-03T03:09:34.466Z,120
2016-07-03T03:10:34.468Z,128
2016-07-03T03:11:34.514Z,140
2016-07-03T03:12:34.434Z,152
2016-07-03T03:13:34.430Z,160
2016-07-03T03:14:34.510Z,176
2016-07-03T03:15:34.434Z,184
2016-07-03T03:16:34.495Z,200
2016-07-03T03:17:34.454Z,212
2016-07-03T03:18:34.454Z,224
2016-07-03T03:19:34.490Z,244
2016-07-03T03:20:34.468Z,256
2016-07-03T03:21:34.486Z,276
2016-07-03T03:22:34.456Z,292
2016-07-03T03:23:34.465Z,312
2016-07-03T03:24:34.494Z,328
2016-07-03T03:25:34.442Z,348
2016-07-03T03:26:34.542Z,368
2016-07-03T03:27:34.699Z,388
2016-07-03T03:28:34.467Z,412
2016-07-03T03:29:34.471Z,436
2016-07-03T03:30:34.504Z,464
2016-07-03T03:31:34.490Z,488
2016-07-03T03:32:34.468Z,520
2016-07-03T03:33:34.498Z,540
2016-07-03T03:34:34.569Z,568
2016-07-03T03:35:34.451Z,596
2016-07-03T03:36:34.462Z,624
2016-07-03T03:37:34.490Z,648
2016-07-03T03:50:34.962Z,1020
2016-07-03T03:50:51.631Z,1028
2016-07-03T03:51:51.630Z,1060
2016-07-03T03:52:51.615Z,1096
2016-07-03T03:53:51.604Z,1124
2016-07-03T03:54:51.645Z,1164
2016-07-03T03:55:51.597Z,1196
2016-07-03T03:56:51.623Z,1228
2016-07-03T03:57:51.599Z,1272
2016-07-03T03:58:51.586Z,1304
2016-07-03T03:59:51.558Z,1336
2016-07-03T04:00:51.686Z,1380
2016-07-03T04:01:51.597Z,1416
2016-07-03T04:02:51.572Z,1444
2016-07-03T04:03:51.990Z,1476
2016-07-03T04:04:51.667Z,1512
2016-07-03T04:05:51.588Z,1552
2016-07-03T04:07:01.912Z,1584
2016-07-03T04:07:51.645Z,1632
2016-07-03T04:08:51.638Z,1676
2016-07-03T04:09:51.684Z,1724
2016-07-03T04:10:51.709Z,1768
2016-07-03T04:11:51.693Z,1816
2016-07-03T04:12:51.637Z,1868
2016-07-03T04:13:51.618Z,1912
2016-07-03T04:14:51.603Z,1968
2016-07-03T04:15:51.616Z,2036
2016-07-03T04:16:51.607Z,2128
2016-07-03T04:17:51.649Z,2368
2016-07-03T04:18:51.596Z,2648
2016-07-03T04:19:51.595Z,2720
2016-07-03T04:20:51.650Z,2704
2016-07-03T04:21:51.598Z,2688
2016-07-03T04:22:51.647Z,2672
2016-07-03T04:23:51.637Z,2680
2016-07-03T04:24:51.663Z,2688
2016-07-03T04:25:51.652Z,2844
2016-07-03T04:26:51.595Z,3036
2016-07-03T04:27:51.634Z,3144
2016-07-03T04:28:51.588Z,3236
2016-07-03T04:29:51.592Z,3436
2016-07-03T04:30:51.631Z,3632
2016-07-03T04:31:51.730Z,3564
2016-07-03T04:32:51.726Z,3716
2016-07-03T04:33:51.590Z,3888
2016-07-03T04:34:51.625Z,4460
2016-07-03T04:35:51.608Z,4440
2016-07-03T04:36:52.755Z,4196
2016-07-03T04:37:51.582Z,3232
2016-07-03T04:38:51.588Z,2800
2016-07-03T04:39:51.618Z,3016
2016-07-03T04:40:52.218Z,3180
2016-07-03T04:41:52.369Z,3220
2016-07-03T04:42:51.630Z,3280
2016-07-03T04:43:51.659Z,3372
2016-07-03T04:44:51.598Z,3464
2016-07-03T04:45:52.920Z,3748
2016-07-03T04:46:57.379Z,4024
2016-07-03T04:47:56.187Z,3984
2016-07-03T04:48:54.847Z,9068
2016-07-03T04:49:51.672Z,9848
2016-07-03T04:50:51.733Z,10216
2016-07-03T04:51:51.654Z,10344
2016-07-03T04:52:51.612Z,10676
2016-07-03T04:53:51.768Z,10992
2016-07-03T04:54:51.647Z,11284
2016-07-03T04:55:51.624Z,11504
2016-07-03T04:56:51.620Z,11796
2016-07-03T04:57:51.741Z,12296
2016-07-03T04:58:52.109Z,12520
2016-07-03T04:59:51.614Z,13408
2016-07-03T05:00:51.589Z,12764
2016-07-03T05:01:51.638Z,13068
2016-07-03T05:02:51.786Z,13188
2016-07-03T05:03:51.626Z,12760
2016-07-03T05:04:51.657Z,6700
2016-07-03T05:05:51.650Z,6072
2016-07-03T05:06:51.652Z,5268
2016-07-03T05:07:51.742Z,4196
2016-07-03T05:08:51.663Z,3600
2016-07-03T05:09:51.596Z,4256
2016-07-03T05:10:51.778Z,5716
2016-07-03T05:11:51.677Z,5520
2016-07-03T05:12:51.623Z,5664
2016-07-03T05:13:51.677Z,4708
2016-07-03T05:14:51.620Z,4680
2016-07-03T05:15:51.615Z,4860
2016-07-03T05:16:53.045Z,5856
2016-07-03T05:17:51.606Z,5760
2016-07-03T05:18:51.596Z,6120
2016-07-03T05:19:51.655Z,6060
2016-07-03T05:20:51.626Z,5456
2016-07-03T05:21:51.646Z,4484
2016-07-03T05:22:51.602Z,4432
2016-07-03T05:23:51.642Z,15712
2016-07-03T05:24:51.647Z,22272
2016-07-03T05:25:51.616Z,18912
2016-07-03T05:26:51.668Z,9772
2016-07-03T05:27:51.617Z,11120
2016-07-03T05:28:51.617Z,9544
2016-07-03T05:29:51.621Z,8500
2016-07-03T05:30:51.616Z,6252
2016-07-03T05:31:51.677Z,5956
2016-07-03T05:32:51.666Z,5460
2016-07-03T05:33:51.632Z,5976
2016-07-03T05:34:51.622Z,6268
2016-07-03T05:35:51.617Z,6392
2016-07-03T05:36:51.639Z,6732
2016-07-03T05:37:51.624Z,13588
2016-07-03T05:38:51.640Z,8012
2016-07-03T05:39:51.676Z,6808
2016-07-03T05:40:51.655Z,18912
2016-07-03T05:41:51.644Z,21728
2016-07-03T05:42:51.634Z,24480
2016-07-03T05:43:51.640Z,24480
2016-07-03T05:44:51.591Z,25888
2016-07-03T05:45:51.644Z,27360
2016-07-03T05:46:52.274Z,29600
2016-07-03T05:47:51.691Z,21024
2016-07-03T05:48:51.669Z,23520
2016-07-03T05:49:51.632Z,15348
2016-07-03T05:50:51.652Z,14728
2016-07-03T05:51:51.654Z,5956
2016-07-03T05:52:51.715Z,6804
2016-07-03T05:53:51.671Z,9620
2016-07-03T05:54:51.672Z,9796
2016-07-03T05:55:51.655Z,9416
2016-07-03T05:56:52.473Z,11304
2016-07-03T05:57:51.686Z,12048
2016-07-03T05:58:54.652Z,18208
2016-07-03T05:59:51.654Z,9584
2016-07-03T06:00:52.014Z,6108
2016-07-03T06:01:52.075Z,4168
2016-07-03T06:02:51.695Z,2980
2016-07-03T06:03:51.840Z,2136
2016-07-03T06:04:51.914Z,2372
2016-07-03T06:05:52.065Z,3720
2016-07-03T06:06:51.709Z,5840
2016-07-03T06:07:52.328Z,7704
2016-07-03T06:08:51.776Z,8244
2016-07-03T06:09:51.680Z,8324
2016-07-03T06:10:54.845Z,7144
2016-07-03T06:11:52.000Z,5904
2016-07-03T06:12:51.679Z,4672
2016-07-03T06:13:51.674Z,3664
2016-07-03T06:14:51.643Z,3224
2016-07-03T06:15:51.972Z,2756
2016-07-03T06:16:51.652Z,2392
2016-07-03T06:17:51.640Z,2524
2016-07-03T06:18:51.749Z,3240
2016-07-03T06:19:51.716Z,4616
2016-07-03T06:20:52.067Z,5392
2016-07-03T06:21:51.649Z,5264
2016-07-03T06:22:51.637Z,4944
2016-07-03T06:23:51.899Z,4656
2016-07-03T06:24:51.733Z,4400
2016-07-03T06:25:51.678Z,4168
2016-07-03T06:26:53.726Z,4076
2016-07-03T06:27:51.924Z,4008
2016-07-03T06:28:51.675Z,3920
2016-07-03T06:29:51.665Z,3868
2016-07-03T06:30:51.703Z,3840
2016-07-03T06:31:51.636Z,3816
2016-07-03T06:32:51.715Z,3656
2016-07-03T06:33:52.005Z,3676
2016-07-03T06:34:51.710Z,3816
2016-07-03T06:35:51.838Z,3908
2016-07-03T06:36:52.105Z,3984
2016-07-03T06:37:51.705Z,3984
2016-07-03T06:38:52.155Z,3984
2016-07-03T06:39:51.710Z,4032
2016-07-03T06:40:51.638Z,4104
2016-07-03T06:41:51.929Z,4280
2016-07-03T06:42:51.672Z,4664
2016-07-03T06:43:52.053Z,5320
2016-07-03T06:44:51.721Z,6040
2016-07-03T06:45:51.771Z,6404
2016-07-03T06:46:51.686Z,6804
2016-07-03T06:47:51.701Z,6768
2016-07-03T06:48:51.648Z,6336
2016-07-03T06:49:51.667Z,6316
2016-07-03T06:50:51.918Z,6284
2016-07-03T06:51:51.659Z,6340
2016-07-03T06:52:51.684Z,6228
2016-07-03T06:53:51.757Z,5916
2016-07-03T06:54:51.645Z,5556
2016-07-03T06:55:51.664Z,5324
2016-07-03T06:56:51.675Z,5072
2016-07-03T06:57:52.486Z,4916
2016-07-03T06:58:51.697Z,4788
2016-07-03T06:59:51.686Z,4636
2016-07-03T07:00:51.713Z,4528
2016-07-03T07:01:52.115Z,4528
2016-07-03T07:02:51.796Z,4588
2016-07-03T07:03:51.724Z,4392
2016-07-03T07:04:51.713Z,4328
2016-07-03T07:05:52.206Z,4284
2016-07-03T07:06:51.683Z,4592
2016-07-03T07:07:51.703Z,5264
2016-07-03T07:08:51.718Z,6308
2016-07-03T07:09:51.681Z,7264
2016-07-03T07:10:53.157Z,8084
2016-07-03T07:11:52.105Z,8544
2016-07-03T07:13:03.472Z,8904
2016-07-03T07:13:51.769Z,9056
2016-07-03T07:14:51.632Z,9512
2016-07-03T07:15:51.937Z,10872
2016-07-03T07:16:52.877Z,12152
2016-07-03T07:17:51.665Z,13000
2016-07-03T07:18:51.707Z,13128
2016-07-03T07:19:51.781Z,13652
2016-07-03T07:20:52.570Z,13464
2016-07-03T07:21:51.718Z,13584
2016-07-03T07:22:52.458Z,15616
2016-07-03T07:23:51.748Z,16128
2016-07-03T07:24:53.184Z,16992
2016-07-03T07:25:51.646Z,17600
2016-07-03T07:26:55.517Z,16864
2016-07-03T07:27:51.854Z,16000
2016-07-03T07:28:51.766Z,16800
2016-07-03T07:29:51.674Z,16928
2016-07-03T07:30:51.792Z,19264
2016-07-03T07:31:52.678Z,18432
2016-07-03T07:32:52.645Z,19680
2016-07-03T07:33:51.743Z,17440
2016-07-03T07:34:55.447Z,16320
2016-07-03T07:35:51.709Z,15052
2016-07-03T07:36:51.808Z,15936
2016-07-03T07:37:52.063Z,17344
2016-07-03T07:38:51.704Z,17184
2016-07-03T07:39:51.831Z,17504
2016-07-03T07:40:54.500Z,17088
2016-07-03T07:41:53.934Z,17024
2016-07-03T07:43:07.951Z,15808
2016-07-03T07:43:52.189Z,13652
2016-07-03T07:44:52.352Z,13804
2016-07-03T07:45:52.218Z,11896
2016-07-03T07:46:51.979Z,11908
2016-07-03T07:59:56.599Z,12696
2016-07-03T08:00:17.151Z,10684
2016-07-03T08:01:24.047Z,12112
2016-07-03T08:02:15.779Z,13864
2016-07-03T08:03:21.048Z,17248
2016-07-03T08:04:14.730Z,15968
2016-07-03T08:05:15.306Z,13344
2016-07-03T08:06:14.904Z,13184
2016-07-03T08:07:14.676Z,13944
2016-07-03T08:08:14.722Z,14456
2016-07-03T08:09:16.456Z,14684
2016-07-03T08:22:15.254Z,39328
2016-07-03T08:22:32.929Z,29408
2016-07-03T08:23:32.165Z,16160
2016-07-03T08:24:32.428Z,13280
2016-07-03T08:25:32.101Z,15048
2016-07-03T08:26:33.777Z,15124
2016-07-03T08:27:33.127Z,13744
2016-07-03T08:28:33.128Z,21344
2016-07-03T08:29:32.576Z,16640
2016-07-03T08:30:32.598Z,25952
2016-07-03T08:31:32.200Z,36832
2016-07-03T08:32:33.186Z,44864
2016-07-03T08:33:32.331Z,14744
2016-07-03T08:34:44.763Z,13104
2016-07-03T08:35:32.177Z,12084
2016-07-03T08:36:33.904Z,11172
2016-07-03T08:37:32.336Z,11468
2016-07-03T08:38:32.459Z,12332
2016-07-03T08:39:32.249Z,12076
2016-07-03T08:40:32.160Z,10384
2016-07-03T08:41:32.924Z,9364
2016-07-03T08:42:32.382Z,9812
2016-07-03T08:43:32.377Z,10684
2016-07-03T08:44:32.216Z,11356
2016-07-03T08:45:32.632Z,11828
2016-07-03T08:46:32.153Z,14844
2016-07-03T08:47:32.176Z,12980
2016-07-03T08:48:32.314Z,13120
2016-07-03T08:49:32.521Z,13996
2016-07-03T08:50:32.753Z,14244
2016-07-03T08:51:32.571Z,14248
2016-07-03T08:52:32.669Z,18848
2016-07-03T08:53:32.488Z,45888
2016-07-03T08:54:32.371Z,49088
2016-07-03T08:55:32.296Z,59648
2016-07-03T08:56:34.843Z,34848
2016-07-03T08:57:32.276Z,77792
2016-07-03T08:58:32.405Z,81408
2016-07-03T08:59:33.794Z,77536
2016-07-03T09:00:32.747Z,18112
2016-07-03T09:01:35.517Z,17120
2016-07-03T09:02:49.007Z,23392
2016-07-03T09:03:32.933Z,72128
2016-07-03T09:04:32.928Z,76192
2016-07-03T09:05:32.451Z,72256
2016-07-03T09:06:32.286Z,76352
2016-07-03T09:07:32.453Z,78848
2016-07-03T09:08:32.349Z,75840
2016-07-03T09:09:34.420Z,83360
2016-07-03T09:10:32.177Z,87456
2016-07-03T09:11:32.227Z,35328
2016-07-03T09:12:44.189Z,14844
2016-07-03T09:13:32.219Z,12400
2016-07-03T09:14:32.245Z,13772
2016-07-03T09:15:32.443Z,26560
2016-07-03T09:16:32.222Z,28640
2016-07-03T09:17:32.152Z,73216
2016-07-03T09:18:32.996Z,65088
2016-07-03T09:19:32.213Z,82528
2016-07-03T09:20:32.190Z,93984
2016-07-03T09:21:32.176Z,98880
2016-07-03T09:22:32.241Z,99264
2016-07-03T09:23:32.180Z,103296
2016-07-03T09:24:32.210Z,103488
2016-07-03T09:25:35.337Z,103328
2016-07-03T09:26:32.239Z,99232
2016-07-03T09:27:32.217Z,100096
2016-07-03T09:28:33.019Z,24544
2016-07-03T09:41:32.707Z,109280
2016-07-03T09:41:53.947Z,106816
2016-07-03T09:42:50.825Z,100576
2016-07-03T09:43:50.642Z,97344
2016-07-03T09:44:51.317Z,96064
2016-07-03T09:45:50.684Z,105088
2016-07-03T09:46:50.690Z,107232
2016-07-03T09:47:50.605Z,109056
2016-07-03T09:48:52.306Z,108320
2016-07-03T09:49:50.574Z,108416
2016-07-03T09:50:51.204Z,111232
2016-07-03T09:51:50.608Z,113440
2016-07-03T09:52:50.672Z,113632
2016-07-03T09:53:50.598Z,111040
2016-07-03T09:54:50.946Z,111552
2016-07-03T09:55:50.747Z,91616
2016-07-03T09:56:51.273Z,109536
2016-07-03T09:57:51.621Z,15924
2016-07-03T09:58:50.675Z,10168
2016-07-03T09:59:50.660Z,12672
2016-07-03T10:00:50.620Z,17440
2016-07-03T10:01:50.603Z,114048
2016-07-03T10:02:50.755Z,52288
2016-07-03T10:03:51.438Z,97440
2016-07-03T10:04:50.634Z,98496
2016-07-03T10:14:51.450Z,101312
2016-07-03T10:15:08.551Z,102240
2016-07-03T10:16:08.214Z,102528
2016-07-03T10:17:08.244Z,96960
2016-07-03T10:18:08.160Z,93472
2016-07-03T10:19:09.205Z,87744
2016-07-03T10:20:08.242Z,85248
2016-07-03T10:21:08.375Z,86464
2016-07-03T10:22:24.807Z,14708
2016-07-03T10:23:09.597Z,11424
2016-07-03T10:24:08.248Z,9308
2016-07-03T10:25:09.904Z,9508
2016-07-03T10:26:09.635Z,11780
2016-07-03T10:27:09.574Z,75808
2016-07-03T10:28:09.433Z,22656
2016-07-03T10:29:08.196Z,16352
2016-07-03T10:30:09.671Z,78912
2016-07-03T10:31:12.829Z,94368
2016-07-03T10:32:08.229Z,26336
2016-07-03T10:33:26.168Z,16736
2016-07-03T10:34:08.311Z,16512
2016-07-03T10:35:08.791Z,22976
2016-07-03T10:36:08.220Z,83776
2016-07-03T10:37:08.255Z,28256
2016-07-03T10:38:08.292Z,21856
2016-07-03T10:39:08.591Z,11672
2016-07-03T10:40:09.451Z,53056
2016-07-03T10:41:12.081Z,62336
2016-07-03T10:42:08.304Z,57920
2016-07-03T10:43:10.670Z,57888
2016-07-03T10:44:08.248Z,56160
2016-07-03T10:45:10.375Z,19776
2016-07-03T10:46:08.203Z,15396
2016-07-03T10:47:08.190Z,29088
2016-07-03T10:48:08.326Z,21888
2016-07-03T10:49:08.182Z,87232
2016-07-03T10:50:08.172Z,22912
2016-07-03T10:51:08.213Z,21184
2016-07-03T10:52:08.217Z,15616
2016-07-03T10:53:08.478Z,11616
2016-07-03T10:54:08.249Z,31200
2016-07-03T10:55:18.464Z,15360
2016-07-03T10:56:09.062Z,10552
2016-07-03T10:57:08.527Z,13296
2016-07-03T10:58:08.386Z,82880
2016-07-03T10:59:08.189Z,12240
2016-07-03T11:00:08.352Z,76416
2016-07-03T11:01:08.371Z,20448
2016-07-03T11:02:08.390Z,42336
2016-07-03T11:03:08.209Z,23392
2016-07-03T11:04:20.044Z,15580
2016-07-03T11:05:08.195Z,12156
2016-07-03T11:06:08.292Z,12484
2016-07-03T11:07:08.474Z,93760
2016-07-03T11:08:08.255Z,97536
2016-07-03T11:09:08.239Z,12948
2016-07-03T11:10:08.256Z,11064
2016-07-03T11:11:08.236Z,9480
2016-07-03T11:12:10.906Z,8548
2016-07-03T11:13:08.445Z,10020
2016-07-03T11:14:20.308Z,54752
2016-07-03T11:15:08.702Z,46272
2016-07-03T11:16:08.328Z,68480
2016-07-03T11:17:08.192Z,86752
2016-07-03T11:18:11.513Z,82112
2016-07-03T11:19:08.243Z,16352
2016-07-03T11:20:08.312Z,78016
2016-07-03T11:21:08.222Z,54432
2016-07-03T11:22:08.254Z,104256
2016-07-03T11:23:08.233Z,14648
2016-07-03T11:24:08.210Z,8596
2016-07-03T11:37:09.062Z,78432
2016-07-03T11:37:25.860Z,80000
2016-07-03T11:38:25.857Z,84640
2016-07-03T11:39:26.043Z,88576
2016-07-03T11:40:35.302Z,49472
2016-07-03T11:41:25.976Z,88832
2016-07-03T11:42:29.578Z,76800
2016-07-03T11:43:25.855Z,76384
2016-07-03T11:44:26.183Z,91744
2016-07-03T11:45:26.020Z,18624
2016-07-03T11:46:25.893Z,13648
2016-07-03T11:47:25.823Z,48928
2016-07-03T11:48:27.019Z,32896
2016-07-03T11:49:26.751Z,14660
2016-07-03T11:50:25.902Z,10164
2016-07-03T11:51:25.949Z,10472
2016-07-03T11:52:25.924Z,13108
2016-07-03T11:53:25.918Z,16064
2016-07-03T11:54:25.926Z,75968
2016-07-03T11:55:25.884Z,19104
2016-07-03T11:56:25.726Z,11932
2016-07-03T11:57:25.801Z,12120
2016-07-03T11:58:25.807Z,11772
2016-07-03T11:59:25.809Z,9476
2016-07-03T12:00:25.768Z,8812
2016-07-03T12:01:37.441Z,9100
2016-07-03T12:02:27.356Z,20000
2016-07-03T12:03:25.751Z,112864
2016-07-03T12:04:25.783Z,110528
2016-07-03T12:05:26.008Z,22592
2016-07-03T12:06:25.752Z,50272
2016-07-03T12:07:25.793Z,27808
2016-07-03T12:08:25.902Z,68640
2016-07-03T12:09:26.151Z,21184
2016-07-03T12:10:25.961Z,15272
2016-07-03T12:11:26.529Z,16160
2016-07-03T12:12:25.755Z,11000
2016-07-03T12:13:27.538Z,9620
2016-07-03T12:14:25.979Z,11572
2016-07-03T12:15:27.137Z,11024
2016-07-03T12:16:25.815Z,9720
2016-07-03T12:17:25.830Z,11112
2016-07-03T12:18:43.372Z,9936
2016-07-03T12:19:25.742Z,9316
2016-07-03T12:20:25.899Z,8268
2016-07-03T12:21:29.056Z,8276
2016-07-03T12:22:27.869Z,7972
2016-07-03T12:23:26.518Z,7596
2016-07-03T12:24:43.167Z,7620
2016-07-03T12:25:28.102Z,8452
2016-07-03T12:26:26.990Z,11128
2016-07-03T12:27:25.832Z,16512
2016-07-03T12:28:26.617Z,49312
2016-07-03T12:29:27.209Z,78592
2016-07-03T12:30:25.765Z,68864
2016-07-03T12:31:25.776Z,22400
2016-07-03T12:32:25.845Z,19040
2016-07-03T12:33:25.778Z,18112
2016-07-03T12:34:26.000Z,19264
2016-07-03T12:35:25.840Z,41216
2016-07-03T12:36:25.390Z,20000
2016-07-03T12:37:26.322Z,20832
2016-07-03T12:38:29.114Z,18176
2016-07-03T12:39:26.422Z,13120
2016-07-03T12:40:25.855Z,10824
2016-07-03T12:41:25.911Z,15408
2016-07-03T12:42:39.243Z,19040
2016-07-03T12:43:25.856Z,20576
2016-07-03T12:44:26.361Z,21696
2016-07-03T12:45:26.087Z,65824
2016-07-03T12:46:26.234Z,59392
2016-07-03T12:47:25.837Z,31264
2016-07-03T12:48:26.159Z,64192
2016-07-03T12:49:35.267Z,16704
2016-07-03T12:50:29.795Z,17248
2016-07-03T12:51:25.801Z,51904
2016-07-03T12:52:37.334Z,96992
2016-07-03T12:53:25.904Z,103392
2016-07-03T12:54:28.810Z,99712
2016-07-03T12:55:29.456Z,104352
2016-07-03T12:56:35.782Z,104512
2016-07-03T12:57:42.593Z,107712
2016-07-03T12:58:55.657Z,109440
2016-07-03T12:59:26.048Z,109184
2016-07-03T13:00:25.949Z,110336
2016-07-03T13:01:37.352Z,111488
2016-07-03T13:02:27.719Z,110240
2016-07-03T13:03:25.984Z,108448
2016-07-03T13:04:26.410Z,107744
2016-07-03T13:05:25.938Z,104608
2016-07-03T13:06:25.955Z,100288
2016-07-03T13:07:26.003Z,105312
2016-07-03T13:08:26.742Z,105312
2016-07-03T13:09:27.794Z,82624
2016-07-03T13:11:25.244Z,101792
2016-07-03T13:11:42.030Z,99456
2016-07-03T13:12:42.794Z,98784
2016-07-03T13:13:41.954Z,94336
2016-07-03T13:14:41.987Z,94816
2016-07-03T13:15:59.987Z,95104
2016-07-03T13:16:41.877Z,98720
2016-07-03T13:17:41.962Z,100320
2016-07-03T13:18:42.413Z,100576
2016-07-03T13:19:41.892Z,102016
2016-07-03T13:20:41.965Z,100672
2016-07-03T13:21:41.999Z,97888
2016-07-03T13:22:41.983Z,92864
2016-07-03T13:23:42.478Z,88960
2016-07-03T13:24:41.947Z,85280
2016-07-03T13:25:41.961Z,83168
2016-07-03T13:27:01.146Z,78432
2016-07-03T13:39:42.401Z,68896
2016-07-03T13:39:59.139Z,67392
2016-07-03T13:41:03.018Z,54272
2016-07-03T13:41:59.264Z,34400
2016-07-03T13:42:59.958Z,13500
2016-07-03T13:44:00.747Z,9616
2016-07-03T13:45:02.027Z,8692
2016-07-03T13:45:59.926Z,8016
2016-07-03T13:47:01.114Z,7736
2016-07-03T13:47:59.055Z,7288
2016-07-03T13:49:11.088Z,6608
2016-07-03T13:49:59.145Z,6476
2016-07-03T13:50:59.114Z,6448
2016-07-03T13:51:59.308Z,6368
2016-07-03T13:52:59.520Z,6216
2016-07-03T13:53:59.793Z,6532
2016-07-03T13:54:59.111Z,7004
2016-07-03T13:55:59.085Z,7832
2016-07-03T13:56:59.112Z,7764
2016-07-03T13:58:00.761Z,7988
2016-07-03T13:58:59.510Z,7448
2016-07-03T13:59:59.095Z,6488
2016-07-03T14:01:00.542Z,5860
2016-07-03T14:01:59.270Z,5356
2016-07-03T14:02:59.128Z,4880
2016-07-03T14:03:59.139Z,4576
2016-07-03T14:04:59.120Z,4404
2016-07-03T14:05:59.572Z,4284
2016-07-03T14:06:59.401Z,4188
2016-07-03T14:07:59.915Z,4076
2016-07-03T14:08:59.127Z,3952
2016-07-03T14:09:59.115Z,3840
2016-07-03T14:10:59.167Z,3748
2016-07-03T14:11:59.126Z,3648
2016-07-03T14:12:59.108Z,3608
2016-07-03T14:14:23.790Z,3576
2016-07-03T14:15:01.189Z,3588
2016-07-03T14:16:00.531Z,3592
2016-07-03T14:17:45.631Z,3524
2016-07-03T14:18:06.563Z,3528
2016-07-03T14:19:02.443Z,3524
2016-07-03T14:20:10.208Z,3496
2016-07-03T14:21:07.378Z,3464
2016-07-03T14:22:03.854Z,3464
2016-07-03T14:23:02.445Z,3496
2016-07-03T14:24:02.481Z,3536
2016-07-03T14:25:06.150Z,3548
2016-07-03T14:26:09.711Z,3560
2016-07-03T14:27:04.207Z,3604
2016-07-03T14:28:45.156Z,3592
2016-07-03T14:29:04.376Z,3552
2016-07-03T14:30:17.108Z,3512
2016-07-03T14:31:10.078Z,3460
2016-07-03T14:32:02.530Z,3448
2016-07-03T14:33:04.362Z,3484
2016-07-03T14:34:02.865Z,3480
2016-07-03T14:35:02.445Z,3460
2016-07-03T14:36:02.403Z,3404
2016-07-03T14:37:04.160Z,3420
2016-07-03T14:38:02.504Z,3460
2016-07-03T14:39:02.601Z,3504
2016-07-03T14:40:02.810Z,3580
2016-07-03T14:41:03.012Z,3744
2016-07-03T14:42:06.727Z,3836
2016-07-03T14:43:02.882Z,3872
2016-07-03T14:53:03.485Z,3720
2016-07-03T14:53:20.191Z,3660
2016-07-03T14:54:24.098Z,3536
2016-07-03T14:55:20.154Z,3560
2016-07-03T14:56:20.178Z,3608
2016-07-03T14:57:36.525Z,3528
2016-07-03T14:58:20.374Z,3440
2016-07-03T14:59:20.126Z,3384